createdAt,value
2023-01-02T00:00:02.786Z,7.90
2023-01-02T00:00:45.325Z,7.80
2023-01-02T00:01:20.890Z,7.80
2023-01-02T00:01:55.301Z,7.70
2023-01-02T00:02:30.446Z,7.70
2023-01-02T00:03:05.631Z,7.70
2023-01-02T00:03:40.677Z,7.60
2023-01-02T00:04:15.817Z,7.60
2023-01-02T00:04:52.993Z,7.60
2023-01-02T00:05:26.823Z,7.60
2023-01-02T00:06:04.917Z,7.60
2023-01-02T00:06:39.830Z,7.50
2023-01-02T00:07:15.417Z,7.50
2023-01-02T00:07:49.155Z,7.50
2023-01-02T00:08:22.639Z,7.40
2023-01-02T00:08:58.757Z,7.40
2023-01-02T00:09:33.230Z,7.40
2023-01-02T00:10:08.483Z,7.40
2023-01-02T00:10:44.070Z,7.30
2023-01-02T00:11:19.370Z,7.30
2023-01-02T00:11:54.533Z,7.30
2023-01-02T00:12:27.816Z,7.30
2023-01-02T00:13:02.640Z,7.20
2023-01-02T00:13:37.125Z,7.30
2023-01-02T00:14:13.082Z,7.20
2023-01-02T00:14:47.189Z,7.20
2023-01-02T00:15:22.309Z,7.20
2023-01-02T00:15:57.045Z,7.20
2023-01-02T00:16:30.384Z,7.20
2023-01-02T00:17:05.349Z,7.10
2023-01-02T00:17:39.310Z,7.10
2023-01-02T00:18:14.315Z,7.10
2023-01-02T00:18:48.785Z,7.10
2023-01-02T00:19:22.710Z,7.10
2023-01-02T00:19:57.528Z,7.10
2023-01-02T00:20:31.701Z,7.10
2023-01-02T00:21:05.819Z,7.00
2023-01-02T00:21:40.212Z,7.00
2023-01-02T00:22:14.539Z,7.00
2023-01-02T00:22:48.619Z,7.00
2023-01-02T00:23:23.765Z,7.00
2023-01-02T00:23:58.386Z,6.90
2023-01-02T00:24:32.141Z,6.90
2023-01-02T00:25:09.534Z,6.90
2023-01-02T00:25:43.533Z,6.90
2023-01-02T00:26:18.509Z,6.90
2023-01-02T00:26:53.211Z,6.80
2023-01-02T00:27:27.136Z,6.80
2023-01-02T00:28:02.637Z,6.80
2023-01-02T00:28:38.108Z,6.80
2023-01-02T00:29:13.228Z,6.80
2023-01-02T00:29:47.172Z,6.80
2023-01-02T00:30:23.845Z,6.80
2023-01-02T00:30:57.575Z,6.80
2023-01-02T00:31:32.647Z,6.80
2023-01-02T00:32:06.486Z,6.70
2023-01-02T00:32:39.985Z,6.70
2023-01-02T00:33:33.663Z,6.70
2023-01-02T00:34:26.441Z,6.70
2023-01-02T00:35:19.822Z,6.70
2023-01-02T00:35:54.270Z,6.70
2023-01-02T00:36:30.254Z,6.70
2023-01-02T00:37:05.354Z,6.70
2023-01-02T00:37:39.357Z,6.60
2023-01-02T00:38:14.407Z,6.60
2023-01-02T00:38:47.291Z,6.60
2023-01-02T00:39:23.377Z,6.60
2023-01-02T00:39:58.418Z,6.60
2023-01-02T00:40:32.371Z,6.60
2023-01-02T00:41:06.574Z,6.60
2023-01-02T00:41:41.763Z,6.50
2023-01-02T00:42:16.481Z,6.50
2023-01-02T00:42:50.393Z,6.50
2023-01-02T00:43:26.147Z,6.50
2023-01-02T00:44:00.302Z,6.50
2023-01-02T00:44:35.265Z,6.50
2023-01-02T00:45:10.263Z,6.50
2023-01-02T00:45:45.690Z,6.50
2023-01-02T00:46:20.362Z,6.50
2023-01-02T00:46:55.299Z,6.40
2023-01-02T00:47:29.834Z,6.40
2023-01-02T00:48:03.622Z,6.40
2023-01-02T00:48:38.493Z,6.40
2023-01-02T00:49:12.727Z,6.40
2023-01-02T00:49:46.863Z,6.40
2023-01-02T00:50:21.955Z,6.40
2023-01-02T00:50:56.201Z,6.40
2023-01-02T00:51:29.522Z,6.40
2023-01-02T00:52:05.175Z,6.40
2023-01-02T00:52:39.624Z,6.40
2023-01-02T00:53:13.810Z,6.40
2023-01-02T00:53:49.225Z,6.40
2023-01-02T00:54:23.825Z,6.40
2023-01-02T00:54:57.188Z,6.40
2023-01-02T00:55:32.438Z,6.40
2023-01-02T00:56:08.924Z,6.40
2023-01-02T00:56:42.369Z,6.40
2023-01-02T00:57:18.292Z,6.40
2023-01-02T00:57:52.747Z,6.30
2023-01-02T00:58:26.726Z,6.30
2023-01-02T00:59:01.819Z,6.30
2023-01-02T00:59:37.553Z,6.30
2023-01-02T01:00:23.442Z,6.30
2023-01-02T01:00:57.443Z,6.30
2023-01-02T01:01:30.560Z,6.30
2023-01-02T01:02:04.445Z,6.30
2023-01-02T01:02:39.563Z,6.30
2023-01-02T01:03:13.102Z,6.30
2023-01-02T01:03:49.678Z,6.30
2023-01-02T01:04:23.076Z,6.30
2023-01-02T01:04:57.505Z,6.30
2023-01-02T01:05:31.756Z,6.30
2023-01-02T01:06:09.154Z,6.30
2023-01-02T01:06:44.233Z,6.30
2023-01-02T01:07:18.642Z,6.30
2023-01-02T01:07:52.440Z,6.30
2023-01-02T01:08:25.602Z,6.30
2023-01-02T01:09:01.557Z,6.30
2023-01-02T01:09:37.228Z,6.30
2023-01-02T01:10:10.828Z,6.30
2023-01-02T01:10:46.967Z,6.30
2023-01-02T01:11:21.143Z,6.30
2023-01-02T01:11:54.722Z,6.30
2023-01-02T01:12:30.726Z,6.30
2023-01-02T01:13:04.477Z,6.30
2023-01-02T01:13:41.782Z,6.30
2023-01-02T01:14:16.731Z,6.30
2023-01-02T01:14:50.080Z,6.30
2023-01-02T01:15:24.063Z,6.30
2023-01-02T01:16:04.179Z,6.30
2023-01-02T01:16:40.282Z,6.30
2023-01-02T01:17:14.464Z,6.30
2023-01-02T01:17:48.488Z,6.30
2023-01-02T01:18:22.460Z,6.30
2023-01-02T01:18:57.365Z,6.30
2023-01-02T01:19:32.308Z,6.30
2023-01-02T01:20:07.352Z,6.30
2023-01-02T01:20:43.359Z,6.30
2023-01-02T01:21:19.789Z,6.30
2023-01-02T01:21:56.474Z,6.30
2023-01-02T01:22:30.805Z,6.30
2023-01-02T01:23:04.081Z,6.30
2023-01-02T01:23:39.142Z,6.40
2023-01-02T01:24:13.502Z,6.40
2023-01-02T01:24:48.349Z,6.40
2023-01-02T01:25:22.825Z,6.40
2023-01-02T01:25:57.309Z,6.40
2023-01-02T01:26:32.280Z,6.40
2023-01-02T01:27:06.569Z,6.40
2023-01-02T01:27:41.697Z,6.40
2023-01-02T01:28:16.038Z,6.30
2023-01-02T01:28:48.973Z,6.30
2023-01-02T01:29:23.108Z,6.30
2023-01-02T01:29:58.630Z,6.30
2023-01-02T01:30:33.688Z,6.30
2023-01-02T01:31:08.382Z,6.30
2023-01-02T01:31:44.265Z,6.30
2023-01-02T01:32:18.347Z,6.30
2023-01-02T01:32:53.332Z,6.30
2023-01-02T01:33:27.665Z,6.30
2023-01-02T01:34:03.321Z,6.30
2023-01-02T01:34:38.344Z,6.30
2023-01-02T01:35:12.892Z,6.30
2023-01-02T01:35:47.216Z,6.30
2023-01-02T01:36:24.433Z,6.30
2023-01-02T01:36:59.491Z,6.20
2023-01-02T01:37:34.373Z,6.30
2023-01-02T01:38:09.059Z,6.20
2023-01-02T01:38:44.355Z,6.30
2023-01-02T01:39:18.103Z,6.20
2023-01-02T01:39:56.790Z,6.20
2023-01-02T01:40:39.292Z,6.20
2023-01-02T01:41:19.225Z,6.20
2023-01-02T01:41:53.626Z,6.20
2023-01-02T01:42:33.709Z,6.20
2023-01-02T01:43:15.319Z,6.20
2023-01-02T01:43:51.294Z,6.10
2023-01-02T01:44:47.172Z,6.10
2023-01-02T01:45:22.270Z,6.10
2023-01-02T01:45:57.377Z,6.10
2023-01-02T01:46:36.390Z,6.10
2023-01-02T01:47:22.652Z,6.10
2023-01-02T01:48:02.032Z,6.00
2023-01-02T01:48:36.698Z,6.00
2023-01-02T01:49:14.204Z,6.00
2023-01-02T01:49:49.961Z,6.00
2023-01-02T01:50:29.975Z,6.00
2023-01-02T01:51:04.319Z,6.00
2023-01-02T01:51:43.424Z,6.00
2023-01-02T01:52:21.631Z,6.00
2023-01-02T01:53:00.926Z,6.00
2023-01-02T01:53:36.428Z,6.00
2023-01-02T01:54:14.165Z,6.00
2023-01-02T01:54:54.270Z,6.00
2023-01-02T01:55:32.297Z,6.00
2023-01-02T01:56:10.038Z,6.00
2023-01-02T01:56:50.575Z,6.00
2023-01-02T01:57:30.994Z,6.00
2023-01-02T01:58:09.106Z,5.90
2023-01-02T01:58:46.977Z,5.90
2023-01-02T01:59:20.387Z,5.90
2023-01-02T01:59:54.921Z,5.90
2023-01-02T02:00:30.306Z,5.90
2023-01-02T02:01:05.531Z,5.90
2023-01-02T02:01:38.951Z,5.90
2023-01-02T02:02:13.672Z,5.90
2023-01-02T02:02:51.815Z,5.90
2023-01-02T02:03:29.207Z,5.90
2023-01-02T02:04:03.326Z,5.90
2023-01-02T02:04:38.997Z,5.90
2023-01-02T02:05:14.465Z,5.80
2023-01-02T02:05:49.627Z,5.80
2023-01-02T02:06:25.091Z,5.90
2023-01-02T02:06:59.566Z,5.80
2023-01-02T02:07:38.583Z,5.80
2023-01-02T02:08:17.740Z,5.80
2023-01-02T02:08:58.311Z,5.80
2023-01-02T02:09:37.968Z,5.80
2023-01-02T02:10:13.642Z,5.80
2023-01-02T02:10:48.561Z,5.80
2023-01-02T02:11:24.017Z,5.80
2023-01-02T02:11:58.436Z,5.80
2023-01-02T02:12:33.349Z,5.80
2023-01-02T02:13:08.600Z,5.80
2023-01-02T02:13:42.113Z,5.80
2023-01-02T02:14:16.902Z,5.80
2023-01-02T02:14:51.886Z,5.80
2023-01-02T02:15:34.058Z,5.80
2023-01-02T02:16:21.766Z,5.80
2023-01-02T02:17:04.915Z,5.80
2023-01-02T02:17:50.855Z,5.70
2023-01-02T02:18:39.424Z,5.80
2023-01-02T02:19:58.161Z,5.80
2023-01-02T02:20:40.703Z,5.80
2023-01-02T02:21:50.926Z,5.80
2023-01-02T02:23:01.633Z,5.80
2023-01-02T02:24:22.269Z,5.80
2023-01-02T02:25:28.087Z,5.80
2023-01-02T02:26:27.929Z,5.80
2023-01-02T02:27:13.619Z,5.80
2023-01-02T02:28:21.667Z,5.80
2023-01-02T02:29:40.181Z,5.80
2023-01-02T02:30:18.468Z,5.80
2023-01-02T02:30:56.063Z,5.80
2023-01-02T02:31:41.149Z,5.80
2023-01-02T02:32:27.441Z,5.80
2023-01-02T02:33:23.812Z,5.80
2023-01-02T02:34:04.809Z,5.70
2023-01-02T02:34:46.187Z,5.70
2023-01-02T02:35:32.069Z,5.70
2023-01-02T02:36:14.828Z,5.70
2023-01-02T02:36:58.963Z,5.70
2023-01-02T02:37:38.428Z,5.60
2023-01-02T02:38:20.815Z,5.60
2023-01-02T02:39:11.806Z,5.60
2023-01-02T02:39:55.469Z,5.60
2023-01-02T02:40:42.980Z,5.60
2023-01-02T02:41:33.665Z,5.60
2023-01-02T02:42:15.065Z,5.60
2023-01-02T02:43:03.073Z,5.60
2023-01-02T02:43:49.811Z,5.60
2023-01-02T02:44:33.721Z,5.70
2023-01-02T02:45:17.847Z,5.60
2023-01-02T02:46:00.692Z,5.60
2023-01-02T02:46:42.369Z,5.60
2023-01-02T02:47:22.665Z,5.60
2023-01-02T02:48:03.247Z,5.60
2023-01-02T02:48:48.676Z,5.60
2023-01-02T02:49:33.530Z,5.60
2023-01-02T02:50:12.380Z,5.60
2023-01-02T02:50:52.755Z,5.60
2023-01-02T02:51:36.097Z,5.60
2023-01-02T02:52:24.252Z,5.60
2023-01-02T02:53:03.022Z,5.50
2023-01-02T02:53:44.590Z,5.50
2023-01-02T02:54:22.555Z,5.50
2023-01-02T02:55:06.025Z,5.50
2023-01-02T02:55:46.609Z,5.50
2023-01-02T02:56:25.115Z,5.50
2023-01-02T02:57:00.640Z,5.50
2023-01-02T02:57:37.745Z,5.60
2023-01-02T02:58:14.564Z,5.60
2023-01-02T02:58:49.037Z,5.60
2023-01-02T02:59:23.732Z,5.60
2023-01-02T02:59:59.244Z,5.60
2023-01-02T03:00:34.546Z,5.60
2023-01-02T03:01:12.621Z,5.50
2023-01-02T03:01:48.762Z,5.60
2023-01-02T03:02:23.921Z,5.60
2023-01-02T03:02:58.303Z,5.60
2023-01-02T03:03:34.120Z,5.60
2023-01-02T03:04:17.856Z,5.60
2023-01-02T03:04:57.821Z,5.60
2023-01-02T03:05:39.090Z,5.60
2023-01-02T03:06:28.506Z,5.50
2023-01-02T03:07:15.110Z,5.50
2023-01-02T03:07:54.808Z,5.60
2023-01-02T03:08:35.215Z,5.60
2023-01-02T03:09:16.317Z,5.50
2023-01-02T03:10:01.527Z,5.60
2023-01-02T03:10:47.737Z,5.60
2023-01-02T03:11:24.440Z,5.60
2023-01-02T03:12:07.203Z,5.50
2023-01-02T03:12:50.526Z,5.50
2023-01-02T03:13:41.374Z,5.50
2023-01-02T03:14:26.717Z,5.60
2023-01-02T03:15:14.840Z,5.50
2023-01-02T03:15:59.688Z,5.50
2023-01-02T03:16:39.849Z,5.50
2023-01-02T03:17:27.343Z,5.50
2023-01-02T03:18:10.417Z,5.50
2023-01-02T03:18:54.729Z,5.50
2023-01-02T03:19:35.496Z,5.50
2023-01-02T03:20:13.715Z,5.50
2023-01-02T03:20:56.700Z,5.50
2023-01-02T03:21:35.803Z,5.50
2023-01-02T03:22:14.614Z,5.50
2023-01-02T03:22:53.935Z,5.40
2023-01-02T03:23:30.005Z,5.50
2023-01-02T03:24:09.590Z,5.50
2023-01-02T04:20:17.614Z,4.80
2023-01-02T04:20:54.558Z,4.70
2023-01-02T04:21:32.284Z,4.70
2023-01-02T04:22:09.751Z,4.70
2023-01-02T04:22:50.311Z,4.70
2023-01-02T04:23:28.985Z,4.70
2023-01-02T04:24:07.486Z,4.70
2023-01-02T04:24:47.062Z,4.70
2023-01-02T04:25:24.263Z,4.70
2023-01-02T04:26:05.087Z,4.70
2023-01-02T04:26:45.286Z,4.70
2023-01-02T04:27:24.781Z,4.60
2023-01-02T04:28:02.723Z,4.70
2023-01-02T04:28:37.713Z,4.70
2023-01-02T04:29:13.874Z,4.70
2023-01-02T04:29:48.099Z,4.60
2023-01-02T04:30:22.456Z,4.60
2023-01-02T04:31:07.081Z,4.60
2023-01-02T04:31:47.137Z,4.60
2023-01-02T04:32:27.244Z,4.60
2023-01-02T04:33:07.108Z,4.60
2023-01-02T04:33:49.872Z,4.60
2023-01-02T04:34:27.722Z,4.60
2023-01-02T04:35:06.017Z,4.60
2023-01-02T04:35:41.489Z,4.60
2023-01-02T04:36:18.172Z,4.60
2023-01-02T04:36:54.677Z,4.60
2023-01-02T04:37:31.316Z,4.50
2023-01-02T04:38:10.605Z,4.60
2023-01-02T04:38:47.658Z,4.50
2023-01-02T04:39:24.893Z,4.60
2023-01-02T04:40:04.132Z,4.50
2023-01-02T04:40:40.867Z,4.50
2023-01-02T04:41:19.911Z,4.50
2023-01-02T04:41:55.466Z,4.40
2023-01-02T04:42:29.195Z,4.40
2023-01-02T04:43:05.669Z,4.40
2023-01-02T04:43:43.524Z,4.40
2023-01-02T04:44:22.930Z,4.40
2023-01-02T04:44:55.904Z,4.40
2023-01-02T04:45:29.278Z,4.40
2023-01-02T04:46:05.247Z,4.40
2023-01-02T04:46:39.097Z,4.40
2023-01-02T04:47:16.817Z,4.40
2023-01-02T04:47:55.736Z,4.40
2023-01-02T04:48:32.459Z,4.40
2023-01-02T04:49:06.780Z,4.40
2023-01-02T04:49:42.330Z,4.40
2023-01-02T04:50:19.474Z,4.40
2023-01-02T04:50:57.164Z,4.40
2023-01-02T04:51:31.484Z,4.40
2023-01-02T04:52:08.302Z,4.40
2023-01-02T04:52:42.856Z,4.40
2023-01-02T04:53:16.345Z,4.40
2023-01-02T04:53:49.743Z,4.40
2023-01-02T04:54:23.939Z,4.40
2023-01-02T04:54:58.469Z,4.40
2023-01-02T04:55:32.283Z,4.40
2023-01-02T04:56:07.974Z,4.40
2023-01-02T04:56:43.361Z,4.40
2023-01-02T04:57:17.378Z,4.40
2023-01-02T04:57:51.793Z,4.40
2023-01-02T04:58:28.133Z,4.40
2023-01-02T04:59:02.291Z,4.40
2023-01-02T04:59:37.355Z,4.40
2023-01-02T05:00:13.535Z,4.40
2023-01-02T05:00:47.190Z,4.40
2023-01-02T05:01:23.169Z,4.40
2023-01-02T05:01:56.159Z,4.40
2023-01-02T05:02:35.038Z,4.40
2023-01-02T05:03:12.010Z,4.40
2023-01-02T05:03:47.234Z,4.40
2023-01-02T05:04:23.277Z,4.40
2023-01-02T05:04:58.244Z,4.40
2023-01-02T05:05:31.390Z,4.30
2023-01-02T05:06:07.609Z,4.30
2023-01-02T05:06:41.409Z,4.30
2023-01-02T05:07:15.261Z,4.30
2023-01-02T05:07:51.015Z,4.30
2023-01-02T05:08:24.384Z,4.30
2023-01-02T05:08:59.808Z,4.30
2023-01-02T05:09:33.129Z,4.30
2023-01-02T05:10:07.370Z,4.30
2023-01-02T05:10:41.304Z,4.30
2023-01-02T05:11:16.453Z,4.30
2023-01-02T05:11:50.566Z,4.30
2023-01-02T05:12:25.010Z,4.30
2023-01-02T05:12:59.262Z,4.30
2023-01-02T05:13:32.955Z,4.20
2023-01-02T05:14:12.824Z,4.20
2023-01-02T05:14:48.515Z,4.20
2023-01-02T05:15:22.966Z,4.20
2023-01-02T05:15:58.385Z,4.20
2023-01-02T05:16:32.500Z,4.20
2023-01-02T05:17:06.974Z,4.20
2023-01-02T05:17:42.305Z,4.20
2023-01-02T05:18:17.117Z,4.20
2023-01-02T05:18:52.219Z,4.20
2023-01-02T05:19:26.687Z,4.20
2023-01-02T05:20:00.717Z,4.20
2023-01-02T05:20:36.920Z,4.20
2023-01-02T05:21:33.015Z,4.20
2023-01-02T05:22:25.451Z,4.20
2023-01-02T05:23:18.390Z,4.20
2023-01-02T05:23:52.173Z,4.20
2023-01-02T05:24:27.588Z,4.20
2023-01-02T05:25:05.131Z,4.10
2023-01-02T05:25:39.780Z,4.10
2023-01-02T05:26:14.041Z,4.10
2023-01-02T05:26:48.435Z,4.10
2023-01-02T05:27:22.290Z,4.10
2023-01-02T05:28:05.605Z,4.10
2023-01-02T05:28:38.969Z,4.10
2023-01-02T05:29:14.325Z,4.10
2023-01-02T05:29:50.164Z,4.10
2023-01-02T05:30:24.920Z,4.10
2023-01-02T05:31:02.740Z,4.10
2023-01-02T05:31:38.561Z,4.10
2023-01-02T05:32:14.311Z,4.10
2023-01-02T05:32:48.298Z,4.10
2023-01-02T05:33:35.486Z,4.10
2023-01-02T05:34:16.206Z,4.10
2023-01-02T05:34:51.256Z,4.10
2023-01-02T05:35:32.141Z,4.10
2023-01-02T05:36:13.130Z,4.00
2023-01-02T05:36:49.489Z,4.00
2023-01-02T05:37:26.795Z,4.00
2023-01-02T05:38:04.937Z,4.00
2023-01-02T05:38:40.489Z,4.00
2023-01-02T05:39:16.083Z,4.00
2023-01-02T05:39:49.909Z,4.00
2023-01-02T05:40:24.376Z,4.00
2023-01-02T05:41:02.211Z,4.00
2023-01-02T05:41:36.091Z,4.00
2023-01-02T05:42:11.534Z,4.00
2023-01-02T05:42:47.790Z,4.00
2023-01-02T05:43:22.367Z,4.00
2023-01-02T05:43:59.750Z,4.00
2023-01-02T05:44:33.185Z,4.00
2023-01-02T05:45:09.699Z,3.90
2023-01-02T05:45:46.439Z,3.90
2023-01-02T05:46:24.599Z,3.90
2023-01-02T05:46:59.544Z,4.00
2023-01-02T05:47:37.652Z,3.90
2023-01-02T05:48:16.390Z,3.90
2023-01-02T05:48:50.597Z,3.90
2023-01-02T05:49:25.402Z,3.90
2023-01-02T05:49:59.378Z,3.90
2023-01-02T05:50:33.183Z,3.90
2023-01-02T05:51:10.586Z,3.90
2023-01-02T05:51:46.575Z,3.90
2023-01-02T05:52:21.244Z,3.90
2023-01-02T05:52:56.010Z,3.90
2023-01-02T05:53:31.808Z,3.90
2023-01-02T05:54:06.402Z,3.80
2023-01-02T05:54:42.026Z,3.90
2023-01-02T05:55:15.323Z,3.90
2023-01-02T05:55:49.496Z,3.80
2023-01-02T05:56:24.912Z,3.80
2023-01-02T05:57:03.251Z,3.90
2023-01-02T05:57:37.465Z,3.90
2023-01-02T05:58:12.535Z,3.80
2023-01-02T05:58:48.029Z,3.80
2023-01-02T05:59:23.711Z,3.80
2023-01-02T06:00:01.118Z,3.80
2023-01-02T06:00:35.884Z,3.80
2023-01-02T06:01:10.923Z,3.90
2023-01-02T06:01:46.107Z,3.90
2023-01-02T06:02:20.688Z,3.80
2023-01-02T06:02:55.258Z,3.90
2023-01-02T06:03:31.583Z,3.90
2023-01-02T06:04:16.080Z,3.80
2023-01-02T06:04:54.969Z,3.80
2023-01-02T06:05:27.773Z,3.80
2023-01-02T06:06:05.726Z,3.90
2023-01-02T06:06:43.724Z,3.80
2023-01-02T06:07:16.660Z,3.90
2023-01-02T06:07:50.545Z,3.80
2023-01-02T06:08:26.475Z,3.90
2023-01-02T06:09:04.669Z,3.90
2023-01-02T06:09:39.666Z,3.90
2023-01-02T06:10:13.410Z,3.80
2023-01-02T06:10:50.898Z,3.90
2023-01-02T06:11:26.975Z,3.90
2023-01-02T06:12:01.451Z,3.80
2023-01-02T06:12:34.656Z,3.80
2023-01-02T06:13:12.698Z,3.80
2023-01-02T06:13:46.340Z,3.80
2023-01-02T06:14:27.407Z,3.80
2023-01-02T06:15:03.001Z,3.80
2023-01-02T06:15:37.509Z,3.80
2023-01-02T06:16:12.088Z,3.80
2023-01-02T06:16:47.719Z,3.80
2023-01-02T06:17:22.142Z,3.80
2023-01-02T06:17:55.968Z,3.80
2023-01-02T06:18:33.164Z,3.80
2023-01-02T06:19:09.462Z,3.80
2023-01-02T06:19:42.299Z,3.80
2023-01-02T06:20:21.420Z,3.80
2023-01-02T06:20:59.598Z,3.70
2023-01-02T06:21:32.871Z,3.80
2023-01-02T06:22:07.287Z,3.80
2023-01-02T06:22:41.231Z,3.80
2023-01-02T06:23:16.283Z,3.70
2023-01-02T06:23:54.808Z,3.80
2023-01-02T06:24:29.647Z,3.80
2023-01-02T06:25:06.685Z,3.80
2023-01-02T06:25:40.179Z,3.80
2023-01-02T06:26:22.371Z,3.80
2023-01-02T06:26:57.049Z,3.80
2023-01-02T06:27:34.313Z,3.80
2023-01-02T06:28:09.015Z,3.80
2023-01-02T06:28:45.005Z,3.80
2023-01-02T06:29:20.587Z,3.80
2023-01-02T06:29:55.510Z,3.80
2023-01-02T06:30:30.651Z,3.80
2023-01-02T06:31:07.345Z,3.80
2023-01-02T06:31:46.049Z,3.80
2023-01-02T06:32:24.112Z,3.80
2023-01-02T06:32:58.413Z,3.80
2023-01-02T06:33:33.532Z,3.80
2023-01-02T06:34:10.112Z,3.80
2023-01-02T06:34:45.034Z,3.80
2023-01-02T06:35:20.014Z,3.80
2023-01-02T06:35:59.921Z,3.80
2023-01-02T06:36:36.132Z,3.80
2023-01-02T06:37:12.820Z,3.80
2023-01-02T06:37:46.090Z,3.80
2023-01-02T06:38:19.539Z,3.80
2023-01-02T06:38:54.116Z,3.80
2023-01-02T06:39:28.099Z,3.80
2023-01-02T06:40:01.978Z,3.80
2023-01-02T06:40:37.412Z,3.80
2023-01-02T06:41:11.512Z,3.80
2023-01-02T06:41:45.667Z,3.80
2023-01-02T06:42:20.370Z,3.80
2023-01-02T06:42:58.459Z,3.80
2023-01-02T06:43:36.571Z,3.80
2023-01-02T06:44:13.524Z,3.80
2023-01-02T06:44:49.050Z,3.80
2023-01-02T06:45:24.861Z,3.80
2023-01-02T06:46:02.231Z,3.80
2023-01-02T06:46:36.190Z,3.80
2023-01-02T06:47:11.270Z,3.80
2023-01-02T06:47:49.648Z,3.80
2023-01-02T06:48:27.194Z,3.80
2023-01-02T06:49:28.611Z,3.80
2023-01-02T06:50:05.393Z,3.80
2023-01-02T06:50:39.080Z,3.80
2023-01-02T06:51:17.356Z,3.90
2023-01-02T06:51:50.988Z,3.90
2023-01-02T06:52:29.431Z,3.80
2023-01-02T06:53:04.584Z,3.80
2023-01-02T06:53:41.277Z,3.90
2023-01-02T06:54:17.708Z,3.90
2023-01-02T06:54:54.524Z,3.80
2023-01-02T06:55:31.235Z,3.90
2023-01-02T06:56:07.718Z,3.90
2023-01-02T06:56:41.657Z,3.90
2023-01-02T06:57:17.377Z,3.90
2023-01-02T06:57:52.136Z,3.90
2023-01-02T06:58:30.628Z,3.90
2023-01-02T06:59:04.495Z,3.90
2023-01-02T06:59:39.275Z,3.90
2023-01-02T07:00:16.611Z,3.90
2023-01-02T07:00:55.420Z,3.90
2023-01-02T07:01:31.736Z,3.90
2023-01-02T07:02:06.606Z,3.90
2023-01-02T07:02:42.843Z,3.90
2023-01-02T07:03:19.985Z,3.90
2023-01-02T07:03:57.618Z,3.90
2023-01-02T07:04:33.115Z,3.90
2023-01-02T07:05:10.955Z,3.90
2023-01-02T07:05:44.628Z,3.90
2023-01-02T07:06:21.417Z,3.90
2023-01-02T07:06:57.276Z,3.90
2023-01-02T07:07:32.085Z,3.90
2023-01-02T07:08:06.098Z,3.90
2023-01-02T07:08:41.474Z,3.90
2023-01-02T07:09:15.312Z,3.90
2023-01-02T07:09:49.322Z,3.90
2023-01-02T07:10:25.228Z,3.90
2023-01-02T07:11:13.232Z,3.90
2023-01-02T07:11:48.779Z,4.00
2023-01-02T07:12:22.702Z,4.00
2023-01-02T07:12:58.140Z,4.00
2023-01-02T07:13:32.472Z,4.00
2023-01-02T07:14:07.520Z,4.00
2023-01-02T07:14:41.844Z,4.00
2023-01-02T07:15:15.188Z,4.00
2023-01-02T07:15:51.417Z,4.00
2023-01-02T07:16:27.121Z,4.00
2023-01-02T07:17:09.260Z,4.00
2023-01-02T07:17:43.904Z,4.10
2023-01-02T07:18:19.365Z,4.10
2023-01-02T07:18:53.263Z,4.10
2023-01-02T07:19:29.015Z,4.10
2023-01-02T07:20:03.407Z,4.10
2023-01-02T07:20:38.193Z,4.10
2023-01-02T07:21:47.034Z,4.10
2023-01-02T07:22:22.662Z,4.20
2023-01-02T07:22:58.816Z,4.40
2023-01-02T07:23:33.918Z,4.60
2023-01-02T07:24:32.730Z,4.80
2023-01-02T07:25:10.038Z,5.00
2023-01-02T07:25:44.813Z,5.50
2023-01-02T07:26:20.132Z,5.70
2023-01-02T07:26:57.522Z,6.00
2023-01-02T07:28:05.832Z,6.50
2023-01-02T07:28:40.215Z,6.70
2023-01-02T07:29:14.760Z,6.80
2023-01-02T07:29:49.422Z,6.90
2023-01-02T07:30:26.366Z,6.90
2023-01-02T07:31:03.147Z,6.90
2023-01-02T07:31:37.543Z,6.90
2023-01-02T07:32:11.414Z,6.90
2023-01-02T07:32:44.624Z,6.90
2023-01-02T07:33:19.222Z,6.90
2023-01-02T07:33:55.258Z,6.90
2023-01-02T07:34:29.282Z,6.90
2023-01-02T07:35:03.259Z,6.90
2023-01-02T07:35:39.611Z,6.90
2023-01-02T07:36:17.499Z,6.80
2023-01-02T07:36:53.202Z,6.80
2023-01-02T07:37:28.102Z,6.80
2023-01-02T07:38:01.570Z,6.90
2023-01-02T07:38:38.303Z,6.90
2023-01-02T07:39:13.277Z,7.00
2023-01-02T07:39:52.083Z,7.20
2023-01-02T07:40:30.306Z,7.40
2023-01-02T07:41:14.842Z,7.60
2023-01-02T07:41:48.711Z,7.80
2023-01-02T08:20:07.995Z,6.10
2023-01-02T08:20:41.472Z,6.00
2023-01-02T08:21:16.862Z,5.90
2023-01-02T08:21:55.413Z,5.90
2023-01-02T08:22:30.545Z,5.80
2023-01-02T08:23:04.533Z,5.80
2023-01-02T08:23:40.668Z,5.70
2023-01-02T08:24:14.589Z,5.70
2023-01-02T08:24:49.648Z,5.70
2023-01-02T08:25:25.232Z,5.60
2023-01-02T08:26:01.756Z,5.60
2023-01-02T08:26:36.796Z,5.60
2023-01-02T08:27:12.907Z,5.50
2023-01-02T08:27:47.338Z,5.50
2023-01-02T08:28:23.060Z,5.50
2023-01-02T08:28:57.235Z,5.50
2023-01-02T08:29:35.805Z,5.40
2023-01-02T08:30:10.709Z,5.40
2023-01-02T08:30:45.258Z,5.40
2023-01-02T08:31:21.453Z,5.40
2023-01-02T08:31:59.461Z,5.40
2023-01-02T08:32:36.511Z,5.40
2023-01-02T08:33:10.991Z,5.30
2023-01-02T08:33:45.102Z,5.30
2023-01-02T08:34:21.101Z,5.30
2023-01-02T08:34:55.151Z,5.30
2023-01-02T08:35:38.463Z,5.30
2023-01-02T08:36:15.675Z,5.30
2023-01-02T08:36:53.127Z,5.20
2023-01-02T08:37:30.787Z,5.20
2023-01-02T08:38:07.323Z,5.20
2023-01-02T08:38:42.444Z,5.20
2023-01-02T08:39:18.638Z,5.20
2023-01-02T08:39:53.082Z,5.20
2023-01-02T08:40:27.997Z,5.20
2023-01-02T08:41:01.719Z,5.10
2023-01-02T08:41:38.471Z,5.10
2023-01-02T08:42:15.166Z,5.10
2023-01-02T08:42:51.210Z,5.10
2023-01-02T08:43:25.722Z,5.10
2023-01-02T08:44:00.588Z,5.10
2023-01-02T08:44:35.253Z,5.10
2023-01-02T08:45:12.652Z,5.00
2023-01-02T08:45:46.772Z,5.00
2023-01-02T08:46:22.969Z,5.00
2023-01-02T08:46:56.166Z,5.00
2023-01-02T08:47:30.737Z,5.00
2023-01-02T08:48:20.431Z,5.00
2023-01-02T08:48:57.541Z,5.00
2023-01-02T08:49:31.374Z,5.00
2023-01-02T08:50:07.486Z,4.90
2023-01-02T08:50:41.159Z,5.00
2023-01-02T08:51:16.277Z,4.90
2023-01-02T08:51:50.412Z,5.00
2023-01-02T08:52:26.828Z,4.90
2023-01-02T08:53:01.788Z,4.90
2023-01-02T08:53:36.843Z,5.00
2023-01-02T08:54:12.004Z,5.00
2023-01-02T08:54:47.980Z,5.00
2023-01-02T08:55:22.540Z,5.00
2023-01-02T08:55:57.525Z,5.00
2023-01-02T08:56:32.476Z,5.00
2023-01-02T08:57:08.043Z,5.00
2023-01-02T08:57:40.947Z,5.00
2023-01-02T08:58:16.331Z,5.00
2023-01-02T08:58:55.745Z,5.00
2023-01-02T08:59:30.259Z,5.00
2023-01-02T09:00:08.241Z,5.00
2023-01-02T09:00:42.757Z,5.00
2023-01-02T09:01:20.013Z,4.90
2023-01-02T09:01:55.053Z,4.90
2023-01-02T09:02:31.413Z,4.90
2023-01-02T09:03:05.860Z,4.90
2023-01-02T09:03:40.333Z,4.90
2023-01-02T09:04:14.333Z,4.90
2023-01-02T09:04:47.770Z,4.90
2023-01-02T09:05:22.244Z,4.90
2023-01-02T09:05:57.635Z,4.90
2023-01-02T09:06:33.103Z,4.90
2023-01-02T09:07:08.046Z,4.80
2023-01-02T09:07:44.070Z,4.80
2023-01-02T09:08:20.005Z,4.90
2023-01-02T09:08:55.596Z,4.80
2023-01-02T09:09:30.082Z,4.80
2023-01-02T09:10:06.267Z,4.80
2023-01-02T09:10:44.794Z,4.80
2023-01-02T09:11:22.616Z,4.80
2023-01-02T09:11:57.917Z,4.90
2023-01-02T09:12:34.111Z,4.80
2023-01-02T09:13:10.905Z,4.90
2023-01-02T09:13:46.548Z,4.80
2023-01-02T09:14:23.443Z,4.80
2023-01-02T09:14:57.856Z,4.80
2023-01-02T09:15:34.717Z,4.80
2023-01-02T09:16:10.292Z,4.80
2023-01-02T09:16:44.878Z,4.80
2023-01-02T09:17:18.772Z,4.80
2023-01-02T09:17:53.935Z,4.80
2023-01-02T09:18:29.689Z,4.80
2023-01-02T09:19:04.406Z,4.70
2023-01-02T09:19:39.256Z,4.70
2023-01-02T09:20:13.973Z,4.70
2023-01-02T09:20:49.372Z,4.70
2023-01-02T09:21:24.118Z,4.70
2023-01-02T09:21:58.190Z,4.70
2023-01-02T09:22:33.061Z,4.70
2023-01-02T09:23:08.035Z,4.70
2023-01-02T09:23:43.086Z,4.70
2023-01-02T09:24:17.024Z,4.70
2023-01-02T09:24:52.569Z,4.70
2023-01-02T09:25:27.645Z,4.70
2023-01-02T09:26:04.504Z,4.70
2023-01-02T09:26:38.770Z,4.70
2023-01-02T09:27:14.318Z,4.70
2023-01-02T09:27:49.322Z,4.70
2023-01-02T09:28:23.086Z,4.70
2023-01-02T09:28:58.931Z,4.70
2023-01-02T09:29:32.867Z,4.70
2023-01-02T09:30:10.220Z,4.70
2023-01-02T09:30:44.593Z,4.70
2023-01-02T09:31:20.019Z,4.70
2023-01-02T09:31:53.495Z,4.60
2023-01-02T09:32:29.519Z,4.60
2023-01-02T09:33:04.082Z,4.60
2023-01-02T09:33:39.626Z,4.60
2023-01-02T09:34:13.821Z,4.60
2023-01-02T09:34:51.163Z,4.60
2023-01-02T09:35:25.741Z,4.60
2023-01-02T09:36:02.937Z,4.60
2023-01-02T09:36:35.594Z,4.60
2023-01-02T09:37:10.556Z,4.60
2023-01-02T09:37:44.730Z,4.60
2023-01-02T09:38:21.641Z,4.60
2023-01-02T09:38:56.250Z,4.60
2023-01-02T09:39:32.968Z,4.60
2023-01-02T09:40:10.681Z,4.60
2023-01-02T09:40:51.410Z,4.60
2023-01-02T09:41:35.970Z,4.60
2023-01-02T09:42:16.155Z,4.60
2023-01-02T09:42:52.547Z,4.60
2023-01-02T09:43:37.788Z,4.60
2023-01-02T09:44:16.048Z,4.60
2023-01-02T09:44:54.270Z,4.60
2023-01-02T09:45:29.726Z,4.60
2023-01-02T09:46:09.677Z,4.60
2023-01-02T09:46:50.864Z,4.60
2023-01-02T09:47:30.489Z,4.60